Time;durP1;ratioP1;P1;durP2;ratioP2;P2;SDS_P1;SDS_P2;PMS_P1;PMS_P2;Temp;Humidity;BMP_temperature;BMP_pressure;BME280_temperature;BME280_humidity;BME280_pressure;Samples;Min_cycle;Max_cycle;Signal;HPM_P1;HPM_P2
2022/08/25 00:00:58;;;;;;;;;;;;;;;16.88;46.51;100266.81;5075526;28;993;-59
2022/08/25 00:03:23;;;;;;;;;;;;;;;16.94;46.31;100270.34;5074803;28;1160;-59
2022/08/25 00:05:49;;;;;;;;;;;;;;;16.98;46.21;100276.09;5066971;28;958;-59
2022/08/25 00:08:14;;;;;;;;;;;;;;;16.91;46.20;100273.66;5072340;28;1981;-59
2022/08/25 00:10:41;;;;;;;;;;;;;;;16.91;46.42;100262.69;5064007;28;1296;-59
2022/08/25 00:13:07;;;;;;;;;;;;;;;16.88;46.22;100271.47;5075073;28;1103;-59
2022/08/25 00:15:32;;;;;;;;;;;;;;;16.91;46.19;100259.94;5074241;28;1056;-59
2022/08/25 00:17:58;;;;;;;;;;;;;;;16.99;45.93;100256.56;5075274;28;1064;-59
2022/08/25 00:20:24;;;;;;;;;;;;;;;16.96;46.01;100251.66;5074812;28;1135;-59
2022/08/25 00:22:49;;;;;;;;;;;;;;;16.89;46.21;100245.69;5067790;28;938;-58
2022/08/25 00:25:15;;;;;;;;;;;;;;;16.87;46.24;100231.38;5063972;28;1851;-60
2022/08/25 00:27:42;;;;;;;;;;;;;;;16.87;46.17;100220.41;5078234;28;1972;-59
2022/08/25 00:30:09;;;;;;;;;;;;;;;16.96;45.67;100206.88;5078805;28;1004;-59
2022/08/25 00:32:34;;;;;;;;;;;;;;;16.85;45.99;100206.16;5078259;28;1044;-59
2022/08/25 00:35:00;;;;;;;;;;;;;;;16.83;46.12;100191.88;5074433;28;1368;-59
2022/08/25 00:37:26;;;;;;;;;;;;;;;16.90;46.13;100179.50;5078763;28;1096;-57
2022/08/25 00:39:53;;;;;;;;;;;;;;;16.93;46.26;100178.09;5078480;28;1367;-59
2022/08/25 00:42:19;;;;;;;;;;;;;;;17.00;45.85;100181.31;5078442;28;1092;-60
2022/08/25 00:44:45;;;;;;;;;;;;;;;16.84;46.35;100172.38;5067992;28;2824;-61
2022/08/25 00:47:11;;;;;;;;;;;;;;;16.91;46.34;100177.56;5073699;28;1373;-58
2022/08/25 00:49:41;;;;;;;;;;;;;;;16.89;46.23;100180.59;5066041;28;1909;-59
2022/08/25 00:52:11;;;;;;;;;;;;;;;16.91;46.12;100172.06;5078809;28;1064;-58
2022/08/25 00:54:57;;;;;;;;;;;;;;;16.85;46.40;100171.25;5047336;28;1031;-58
2022/08/25 00:57:25;;;;;;;;;;;;;;;16.95;46.21;100172.31;5072221;28;1941;-60
2022/08/25 00:59:50;;;;;;;;;;;;;;;16.91;46.29;100167.41;5058640;28;1065;-60
2022/08/25 01:02:16;;;;;;;;;;;;;;;17.01;46.03;100182.97;5050741;28;822;-59
2022/08/25 01:04:42;;;;;;;;;;;;;;;16.97;45.90;100181.06;5074424;28;993;-59
2022/08/25 01:07:07;;;;;;;;;;;;;;;16.87;46.23;100179.22;5078464;28;1028;-59
2022/08/25 01:09:33;;;;;;;;;;;;;;;16.89;46.36;100168.81;5073781;28;1910;-59
2022/08/25 01:11:58;;;;;;;;;;;;;;;16.92;46.17;100174.50;5078150;28;1112;-59
2022/08/25 01:14:24;;;;;;;;;;;;;;;16.96;46.05;100168.44;5078087;28;1024;-59
2022/08/25 01:16:49;;;;;;;;;;;;;;;16.87;46.26;100169.06;5060332;28;1109;-59
2022/08/25 01:19:15;;;;;;;;;;;;;;;16.90;46.00;100165.75;5078266;28;1040;-59
2022/08/25 01:21:42;;;;;;;;;;;;;;;16.83;46.07;100158.94;5076508;28;973;-59
2022/08/25 01:24:08;;;;;;;;;;;;;;;16.87;46.28;100138.84;5077895;28;1464;-60
2022/08/25 01:26:33;;;;;;;;;;;;;;;16.84;46.34;100133.13;5075362;28;1053;-60
2022/08/25 01:31:44;;;;;;;;;;;;;;;16.95;46.10;100128.38;5078255;28;1036;-60
2022/08/25 01:34:11;;;;;;;;;;;;;;;16.89;46.16;100131.16;5073012;28;919;-61
2022/08/25 01:36:36;;;;;;;;;;;;;;;16.87;46.12;100127.03;5078094;28;1082;-60
2022/08/25 01:39:02;;;;;;;;;;;;;;;16.89;46.13;100114.69;5076408;28;1191;-61
2022/08/25 01:41:28;;;;;;;;;;;;;;;16.89;46.24;100108.38;5077496;28;1013;-60
2022/08/25 01:43:53;;;;;;;;;;;;;;;16.92;46.00;100102.31;5067985;28;1030;-60
2022/08/25 01:46:18;;;;;;;;;;;;;;;16.87;46.24;100105.06;5070448;28;1163;-61
2022/08/25 01:48:44;;;;;;;;;;;;;;;16.89;46.13;100109.19;5077737;28;1978;-60
2022/08/25 01:51:09;;;;;;;;;;;;;;;16.89;46.17;100111.13;5075318;28;1088;-60
2022/08/25 01:53:35;;;;;;;;;;;;;;;16.92;46.01;100107.81;5066722;28;1055;-61
2022/08/25 01:56:07;;;;;;;;;;;;;;;16.84;46.19;100116.63;5076848;28;1182;-61
2022/08/25 01:58:33;;;;;;;;;;;;;;;16.89;46.11;100108.38;5075596;28;922;-61
2022/08/25 02:01:00;;;;;;;;;;;;;;;16.87;46.15;100105.06;5077663;28;997;-60
2022/08/25 02:03:26;;;;;;;;;;;;;;;16.94;45.94;100108.31;5077743;28;1123;-61
2022/08/25 02:05:52;;;;;;;;;;;;;;;16.88;46.21;100101.22;5077281;28;1166;-61
2022/08/25 02:08:17;;;;;;;;;;;;;;;16.95;46.11;100106.41;5077212;28;1913;-61
2022/08/25 02:10:43;;;;;;;;;;;;;;;16.88;46.37;100106.72;5077044;28;849;-61
2022/08/25 02:13:08;;;;;;;;;;;;;;;16.83;46.21;100104.00;5077102;28;1222;-61
2022/08/25 02:15:34;;;;;;;;;;;;;;;16.86;46.10;100100.72;5077145;28;986;-61
2022/08/25 02:17:59;;;;;;;;;;;;;;;16.82;46.26;100102.41;5077092;28;954;-61
2022/08/25 02:20:25;;;;;;;;;;;;;;;16.91;46.05;100106.16;5077402;28;1088;-62
2022/08/25 02:22:50;;;;;;;;;;;;;;;16.90;46.17;100104.50;5075344;28;898;-60
2022/08/25 02:25:16;;;;;;;;;;;;;;;16.88;46.16;100103.97;5076801;28;961;-61
2022/08/25 02:27:42;;;;;;;;;;;;;;;16.86;46.02;100101.53;5076531;28;1913;-61
2022/08/25 02:30:08;;;;;;;;;;;;;;;16.83;46.16;100093.88;5076963;28;1025;-61
2022/08/25 02:32:33;;;;;;;;;;;;;;;16.87;45.90;100103.16;5076518;28;1005;-60
2022/08/25 02:34:59;;;;;;;;;;;;;;;16.85;46.06;100104.56;5076577;28;910;-60
2022/08/25 02:37:24;;;;;;;;;;;;;;;16.92;45.60;100099.56;5076451;28;1211;-61
2022/08/25 02:39:49;;;;;;;;;;;;;;;16.90;45.64;100096.28;5058891;28;997;-59
2022/08/25 02:42:15;;;;;;;;;;;;;;;16.80;45.81;100094.44;5076556;28;958;-59
2022/08/25 02:44:40;;;;;;;;;;;;;;;16.80;45.96;100071.66;5064872;28;1128;-58
2022/08/25 02:47:06;;;;;;;;;;;;;;;16.82;45.70;100086.72;5076675;28;842;-58
2022/08/25 02:49:31;;;;;;;;;;;;;;;16.80;45.90;100085.38;5076550;28;1909;-57
2022/08/25 02:51:59;;;;;;;;;;;;;;;16.83;45.99;100099.34;5076470;28;945;-57
2022/08/25 02:54:24;;;;;;;;;;;;;;;16.84;45.84;100084.50;5076354;28;985;-57
2022/08/25 02:56:50;;;;;;;;;;;;;;;16.89;45.81;100091.91;5076676;28;989;-57
2022/08/25 02:59:16;;;;;;;;;;;;;;;16.83;45.83;100087.53;5071461;28;914;-58
2022/08/25 03:01:42;;;;;;;;;;;;;;;16.84;45.75;100083.69;5068868;28;1282;-58
2022/08/25 03:04:08;;;;;;;;;;;;;;;16.79;46.14;100092.81;5067990;28;1013;-58
2022/08/25 03:06:33;;;;;;;;;;;;;;;16.87;45.95;100094.09;5076040;28;1194;-58
2022/08/25 03:08:58;;;;;;;;;;;;;;;16.85;46.02;100096.31;5076669;28;1906;-58
2022/08/25 03:11:25;;;;;;;;;;;;;;;16.81;45.91;100100.75;5075150;28;1185;-57
2022/08/25 03:13:50;;;;;;;;;;;;;;;16.83;45.95;100110.34;5064134;28;1000;-58
2022/08/25 03:16:16;;;;;;;;;;;;;;;16.87;45.97;100113.31;5069712;28;934;-57
2022/08/25 03:18:41;;;;;;;;;;;;;;;16.83;46.06;100115.00;5076049;28;1021;-56
2022/08/25 03:21:07;;;;;;;;;;;;;;;16.81;46.09;100125.47;5063243;28;1464;-57
2022/08/25 03:23:32;;;;;;;;;;;;;;;16.76;45.87;100129.91;5063690;28;958;-56
2022/08/25 03:28:41;;;;;;;;;;;;;;;16.76;46.03;100135.41;5073391;28;1964;-59
2022/08/25 03:31:07;;;;;;;;;;;;;;;16.79;46.02;100141.41;5061427;28;1353;-57
2022/08/25 03:33:33;;;;;;;;;;;;;;;16.74;45.87;100145.03;5075959;28;1077;-59
2022/08/25 03:35:58;;;;;;;;;;;;;;;16.73;46.11;100138.72;5068785;28;887;-61
2022/08/25 03:38:24;;;;;;;;;;;;;;;16.75;46.00;100147.47;5075951;28;1016;-61
2022/08/25 03:40:49;;;;;;;;;;;;;;;16.74;46.00;100145.03;5075599;28;950;-61
2022/08/25 03:43:15;;;;;;;;;;;;;;;16.83;45.83;100143.28;5067331;28;982;-61
2022/08/25 03:45:41;;;;;;;;;;;;;;;16.82;45.89;100143.59;5069103;28;1060;-60
2022/08/25 03:48:06;;;;;;;;;;;;;;;16.86;45.75;100141.91;5062619;28;1960;-61
2022/08/25 03:50:32;;;;;;;;;;;;;;;16.76;45.89;100135.41;5075596;28;956;-60
2022/08/25 03:52:58;;;;;;;;;;;;;;;16.73;46.03;100133.22;5075506;28;993;-59
2022/08/25 03:55:23;;;;;;;;;;;;;;;16.76;45.94;100140.06;5075328;28;1033;-61
2022/08/25 03:57:49;;;;;;;;;;;;;;;16.70;45.86;100141.22;5057292;28;1143;-59
2022/08/25 04:00:15;;;;;;;;;;;;;;;16.88;45.68;100139.66;5065671;28;997;-60
2022/08/25 04:02:40;;;;;;;;;;;;;;;16.74;45.91;100142.28;5078895;28;1005;-60
2022/08/25 04:05:06;;;;;;;;;;;;;;;16.75;45.87;100147.47;5074544;28;1151;-58
2022/08/25 04:07:31;;;;;;;;;;;;;;;16.77;45.90;100144.44;5076035;28;2827;-61
2022/08/25 04:09:57;;;;;;;;;;;;;;;16.76;45.88;100146.38;5071807;28;1869;-58
2022/08/25 04:12:22;;;;;;;;;;;;;;;16.69;45.79;100148.66;5066253;28;1871;-58
2022/08/25 04:14:48;;;;;;;;;;;;;;;16.70;45.88;100149.44;5066985;28;1805;-58
2022/08/25 04:17:14;;;;;;;;;;;;;;;16.73;45.87;100146.97;5048752;28;2132;-57
2022/08/25 04:19:39;;;;;;;;;;;;;;;16.81;45.55;100139.19;5066572;28;2095;-58
2022/08/25 04:22:05;;;;;;;;;;;;;;;16.72;46.04;100142.56;5065917;28;1963;-57
2022/08/25 04:24:30;;;;;;;;;;;;;;;16.72;45.91;100145.31;5071817;28;2189;-59
2022/08/25 04:26:56;;;;;;;;;;;;;;;16.69;45.88;100145.91;5071302;28;1084;-58
2022/08/25 04:29:22;;;;;;;;;;;;;;;16.69;46.05;100154.13;5075855;28;2001;-59
2022/08/25 04:31:48;;;;;;;;;;;;;;;16.70;46.06;100150.25;5074094;28;1167;-57
2022/08/25 04:34:14;;;;;;;;;;;;;;;16.69;45.91;100145.91;5065284;28;1109;-60
2022/08/25 04:36:40;;;;;;;;;;;;;;;16.72;45.77;100144.50;5077473;28;1123;-59
2022/08/25 04:39:06;;;;;;;;;;;;;;;16.77;45.67;100131.53;5077982;28;1136;-58
2022/08/25 04:41:31;;;;;;;;;;;;;;;16.72;46.11;100134.34;5072118;28;1028;-59
2022/08/25 04:43:57;;;;;;;;;;;;;;;16.71;45.87;100129.94;5072241;28;1072;-57
2022/08/25 04:46:23;;;;;;;;;;;;;;;16.68;46.10;100136.03;5073929;28;1531;-58
2022/08/25 04:48:49;;;;;;;;;;;;;;;16.77;45.88;100134.28;5065208;28;1902;-59
2022/08/25 04:51:15;;;;;;;;;;;;;;;16.64;46.08;100129.47;5069655;28;985;-58
2022/08/25 04:53:41;;;;;;;;;;;;;;;16.73;46.22;100133.22;5069792;28;2516;-56
2022/08/25 04:56:10;;;;;;;;;;;;;;;16.73;46.06;100132.41;5072977;28;1033;-57
2022/08/25 04:58:36;;;;;;;;;;;;;;;16.73;46.26;100132.41;5073508;28;1012;-55
2022/08/25 05:01:14;;;;;;;;;;;;;;;16.72;46.42;100134.34;5072045;28;1033;-58
2022/08/25 05:03:39;;;;;;;;;;;;;;;16.80;46.11;100134.81;5071139;28;1013;-58
2022/08/25 05:06:05;;;;;;;;;;;;;;;16.75;46.44;100141.97;5066713;28;1016;-59
2022/08/25 05:08:31;;;;;;;;;;;;;;;16.69;46.60;100137.66;5072015;28;1901;-57
2022/08/25 05:10:56;;;;;;;;;;;;;;;16.75;46.67;100132.94;5069681;28;993;-57
2022/08/25 05:13:22;;;;;;;;;;;;;;;16.80;46.43;100116.41;5074651;28;933;-56
2022/08/25 05:15:51;;;;;;;;;;;;;;;16.80;46.43;100118.34;5073351;28;1036;-56
2022/08/25 05:18:17;;;;;;;;;;;;;;;16.84;46.41;100122.13;5077921;28;961;-55
2022/08/25 05:20:42;;;;;;;;;;;;;;;16.81;46.69;100120.78;5078104;28;1004;-58
2022/08/25 05:23:08;;;;;;;;;;;;;;;16.84;46.61;100124.88;5074317;28;958;-57
2022/08/25 05:25:33;;;;;;;;;;;;;;;16.75;46.63;100119.22;5077618;28;1124;-57
2022/08/25 05:27:59;;;;;;;;;;;;;;;16.77;46.92;100116.97;5077575;28;1981;-57
2022/08/25 05:30:24;;;;;;;;;;;;;;;16.73;47.15;100119.50;5077954;28;1163;-57
2022/08/25 05:32:49;;;;;;;;;;;;;;;16.73;46.94;100105.78;5077759;28;985;-60
2022/08/25 05:35:15;;;;;;;;;;;;;;;16.82;46.97;100105.94;5076913;28;941;-57
2022/08/25 05:37:41;;;;;;;;;;;;;;;16.86;46.94;100107.00;5078010;28;977;-58
2022/08/25 05:40:07;;;;;;;;;;;;;;;16.73;47.23;100110.44;5077485;28;1004;-57
2022/08/25 05:42:32;;;;;;;;;;;;;;;16.83;46.80;100125.97;5076488;28;1131;-58
2022/08/25 05:44:58;;;;;;;;;;;;;;;17.95;46.09;100126.53;5065532;28;1020;-56
2022/08/25 05:47:23;;;;;;;;;;;;;;;17.72;47.42;100113.63;5077220;28;976;-56
2022/08/25 05:49:49;;;;;;;;;;;;;;;17.43;48.85;100114.56;5076931;28;1988;-58
2022/08/25 05:52:14;;;;;;;;;;;;;;;17.33;49.41;100122.97;5077495;28;993;-57
2022/08/25 05:54:40;;;;;;;;;;;;;;;17.22;50.34;100112.13;5077128;28;1036;-58
2022/08/25 05:57:05;;;;;;;;;;;;;;;17.21;51.02;100115.97;5059189;28;1041;-57
2022/08/25 05:59:31;;;;;;;;;;;;;;;17.16;51.56;100123.44;5073255;28;969;-56
2022/08/25 06:04:40;;;;;;;;;;;;;;;17.05;52.69;100122.75;5072981;28;1124;-56
2022/08/25 06:07:05;;;;;;;;;;;;;;;17.07;53.16;100120.53;5077672;28;1084;-59
2022/08/25 06:09:31;;;;;;;;;;;;;;;17.07;53.39;100126.03;5076970;28;1978;-59
2022/08/25 06:11:56;;;;;;;;;;;;;;;16.99;53.74;100138.47;5065868;28;970;-59
2022/08/25 06:14:22;;;;;;;;;;;;;;;16.98;54.29;100139.56;5076963;28;977;-58
2022/08/25 06:16:50;;;;;;;;;;;;;;;16.97;54.77;100135.22;5076720;28;1036;-60
2022/08/25 06:19:16;;;;;;;;;;;;;;;16.97;54.86;100135.22;5076957;28;1057;-61
2022/08/25 06:21:41;;;;;;;;;;;;;;;16.94;55.30;100138.53;5076872;28;1127;-60
2022/08/25 06:24:07;;;;;;;;;;;;;;;16.96;55.60;100141.81;5075951;28;881;-58
2022/08/25 06:26:33;;;;;;;;;;;;;;;16.94;55.75;100135.78;5076472;28;1059;-59
2022/08/25 06:28:58;;;;;;;;;;;;;;;16.92;55.73;100127.03;5076457;28;1914;-59
2022/08/25 06:31:23;;;;;;;;;;;;;;;16.90;56.07;100138.31;5071374;28;1048;-57
2022/08/25 06:33:49;;;;;;;;;;;;;;;16.88;56.04;100134.16;5075307;28;1107;-55
2022/08/25 06:36:14;;;;;;;;;;;;;;;16.89;56.22;100133.09;5058154;28;837;-58
2022/08/25 06:38:40;;;;;;;;;;;;;;;16.90;56.41;100126.47;5076583;28;953;-61
2022/08/25 06:41:06;;;;;;;;;;;;;;;16.84;56.59;100128.44;5066412;28;1247;-60
2022/08/25 06:43:34;;;;;;;;;;;;;;;16.87;56.33;100135.28;5066031;28;1309;-58
2022/08/25 06:46:09;;;;;;;;;;;;;;;16.85;56.55;100127.34;5065666;28;1180;-58
2022/08/25 06:48:34;;;;;;;;;;;;;;;16.86;56.59;100119.94;5068109;28;1984;-60
2022/08/25 06:51:04;;;;;;;;;;;;;;;16.87;56.38;100121.53;5076557;28;1005;-59
2022/08/25 06:53:29;;;;;;;;;;;;;;;16.87;56.45;100124.28;5071857;28;1262;-60
2022/08/25 06:55:56;;;;;;;;;;;;;;;16.91;56.71;100112.47;5073714;28;1190;-59
2022/08/25 06:58:21;;;;;;;;;;;;;;;16.85;57.00;100113.59;5058601;28;885;-55
2022/08/25 07:00:47;;;;;;;;;;;;;;;16.90;56.77;100119.06;5068906;28;1256;-61
2022/08/25 07:03:12;;;;;;;;;;;;;;;16.86;56.96;100126.22;5076276;28;1021;-58
2022/08/25 07:05:38;;;;;;;;;;;;;;;16.87;57.04;100110.56;5076104;28;997;-56
2022/08/25 07:08:03;;;;;;;;;;;;;;;16.85;57.25;100123.78;5076012;28;1910;-62
2022/08/25 07:10:29;;;;;;;;;;;;;;;16.85;57.08;100124.59;5076312;28;1084;-60
2022/08/25 07:12:54;;;;;;;;;;;;;;;16.86;57.15;100108.94;5072256;28;1104;-56
2022/08/25 07:15:20;;;;;;;;;;;;;;;16.82;57.43;100127.13;5070090;28;1100;-60
2022/08/25 07:17:45;;;;;;;;;;;;;;;16.86;57.29;100122.69;5065603;28;1151;-57
2022/08/25 07:20:11;;;;;;;;;;;;;;;16.83;57.43;100109.50;5064809;28;1396;-58
2022/08/25 07:22:37;;;;;;;;;;;;;;;16.84;57.34;100120.19;5073092;28;1187;-61
2022/08/25 07:25:02;;;;;;;;;;;;;;;16.85;57.41;100118.28;5068026;28;848;-62
2022/08/25 07:27:28;;;;;;;;;;;;;;;16.83;57.26;100126.81;5070691;28;1068;-57
2022/08/25 07:29:53;;;;;;;;;;;;;;;16.84;57.37;100133.13;5075989;28;1982;-60
2022/08/25 07:32:19;;;;;;;;;;;;;;;16.82;57.47;100122.44;5075855;28;1061;-60
2022/08/25 07:37:28;;;;;;;;;;;;;;;16.83;57.77;100139.72;5063108;28;967;-58
2022/08/25 07:39:54;;;;;;;;;;;;;;;16.83;57.69;100126.81;5074147;28;1124;-59
2022/08/25 07:42:19;;;;;;;;;;;;;;;16.85;57.88;100129.28;5075877;28;957;-56
2022/08/25 07:44:45;;;;;;;;;;;;;;;16.84;57.94;100122.13;5064171;28;1112;-63
2022/08/25 07:47:10;;;;;;;;;;;;;;;16.80;57.70;100121.06;5075878;28;1088;-60
2022/08/25 07:49:36;;;;;;;;;;;;;;;16.80;57.90;100127.38;5065458;28;1905;-58
2022/08/25 07:52:01;;;;;;;;;;;;;;;16.79;57.93;100124.94;5065823;28;1025;-60
2022/08/25 07:54:27;;;;;;;;;;;;;;;16.79;57.70;100125.75;5066012;28;1321;-60
2022/08/25 07:56:52;;;;;;;;;;;;;;;16.82;57.67;100127.13;5071398;28;1239;-58
2022/08/25 07:59:18;;;;;;;;;;;;;;;16.85;57.60;100129.28;5075554;28;997;-61
2022/08/25 08:01:43;;;;;;;;;;;;;;;16.81;57.52;100122.72;5067482;28;1119;-61
2022/08/25 08:04:09;;;;;;;;;;;;;;;16.83;57.18;100115.84;5064529;28;1199;-61
2022/08/25 08:06:34;;;;;;;;;;;;;;;16.83;57.24;100110.34;5053038;28;1140;-61
2022/08/25 08:09:01;;;;;;;;;;;;;;;16.82;57.38;100113.38;5066342;28;1967;-61
2022/08/25 08:11:27;;;;;;;;;;;;;;;16.76;57.34;100110.69;5075984;28;1230;-59
2022/08/25 08:13:53;;;;;;;;;;;;;;;16.79;57.59;100092.81;5070439;28;875;-60
2022/08/25 08:16:19;;;;;;;;;;;;;;;16.77;57.27;100101.34;5075363;28;1096;-58
2022/08/25 08:18:45;;;;;;;;;;;;;;;16.76;57.52;100093.41;5075086;28;1068;-59
2022/08/25 08:21:16;;;;;;;;;;;;;;;16.82;57.36;100091.41;5063113;28;950;-61
2022/08/25 08:23:42;;;;;;;;;;;;;;;16.79;57.45;100097.47;5075580;28;1128;-58
2022/08/25 08:26:07;;;;;;;;;;;;;;;16.78;57.47;100082.94;5074860;28;886;-59
2022/08/25 08:28:33;;;;;;;;;;;;;;;16.80;57.44;100082.63;5062433;28;1977;-58
2022/08/25 08:30:58;;;;;;;;;;;;;;;16.76;57.48;100077.72;5070602;28;1009;-58
2022/08/25 08:33:24;;;;;;;;;;;;;;;16.82;57.18;100073.00;5070126;28;1047;-58
2022/08/25 08:35:58;;;;;;;;;;;;;;;16.80;57.47;100074.41;5071798;28;1001;-60
2022/08/25 08:38:24;;;;;;;;;;;;;;;16.79;57.34;100070.84;5068125;28;965;-59
2022/08/25 08:44:05;;;;;;;;;;;;;;;16.74;57.27;100073.66;5061691;28;1545;-57
2022/08/25 08:46:35;;;;;;;;;;;;;;;16.81;57.29;100067.81;5056023;28;1017;-57
2022/08/25 08:49:02;;;;;;;;;;;;;;;16.83;57.42;100071.06;5055444;28;1918;-57
2022/08/25 08:51:30;;;;;;;;;;;;;;;16.81;57.50;100068.63;5046364;28;1090;-58
2022/08/25 08:54:17;;;;;;;;;;;;;;;16.75;57.59;100073.34;5078752;28;1000;-59
2022/08/25 08:56:43;;;;;;;;;;;;;;;16.80;57.64;100072.47;5069619;28;1244;-60
2022/08/25 08:59:10;;;;;;;;;;;;;;;16.83;57.36;100079.31;5060245;28;1044;-58
2022/08/25 09:01:44;;;;;;;;;;;;;;;16.82;57.36;100075.75;5074604;28;1128;-59
2022/08/25 09:04:09;;;;;;;;;;;;;;;16.84;57.37;100076.25;5059969;28;1002;-58
2022/08/25 09:06:40;;;;;;;;;;;;;;;16.84;57.44;100067.22;5076240;28;1174;-59
2022/08/25 09:09:05;;;;;;;;;;;;;;;16.86;57.51;100065.00;5078369;28;1913;-59
2022/08/25 09:11:31;;;;;;;;;;;;;;;16.85;57.69;100066.13;5060439;28;1124;-60
2022/08/25 09:14:00;;;;;;;;;;;;;;;16.84;57.55;100068.03;5078152;28;978;-59
2022/08/25 09:17:01;;;;;;;;;;;;;;;16.84;57.63;100072.72;5078234;28;953;-60
2022/08/25 09:19:35;;;;;;;;;;;;;;;16.87;57.73;100051.00;4977551;28;1432;-60
2022/08/25 09:22:19;;;;;;;;;;;;;;;16.89;57.74;100056.22;5047009;28;1165;-61
2022/08/25 09:24:52;;;;;;;;;;;;;;;16.89;57.78;100048.78;5065094;28;1040;-60
2022/08/25 09:27:22;;;;;;;;;;;;;;;16.91;57.60;100045.75;5061830;28;984;-61
2022/08/25 09:29:57;;;;;;;;;;;;;;;16.89;57.86;100042.47;5050116;28;1963;-60
2022/08/25 09:32:23;;;;;;;;;;;;;;;16.89;57.56;100039.75;5051990;28;1219;-59
2022/08/25 09:34:48;;;;;;;;;;;;;;;16.88;57.73;100043.56;5068667;28;962;-57
2022/08/25 09:37:14;;;;;;;;;;;;;;;16.90;57.87;100038.59;5073553;28;1163;-58
2022/08/25 09:39:40;;;;;;;;;;;;;;;16.87;57.85;100039.16;5067428;28;1159;-60
2022/08/25 09:42:06;;;;;;;;;;;;;;;16.92;57.76;100041.88;5069020;28;965;-59
2022/08/25 09:44:40;;;;;;;;;;;;;;;16.95;57.47;100041.28;5073467;28;1096;-60
2022/08/25 09:47:20;;;;;;;;;;;;;;;16.89;57.88;100042.47;5077822;28;969;-59
2022/08/25 09:49:50;;;;;;;;;;;;;;;16.91;57.98;100043.00;5059418;28;1918;-59
2022/08/25 09:52:36;;;;;;;;;;;;;;;16.99;57.86;100047.84;5077307;28;966;-53
2022/08/25 09:55:04;;;;;;;;;;;;;;;16.94;58.14;100053.38;5064745;28;1326;-58
2022/08/25 09:57:30;;;;;;;;;;;;;;;17.00;57.72;100054.97;5077624;28;1035;-58
2022/08/25 09:59:55;;;;;;;;;;;;;;;17.00;58.05;100059.63;5058452;28;1140;-60
2022/08/25 10:02:22;;;;;;;;;;;;;;;17.00;57.96;100056.88;5074721;28;894;-58
2022/08/25 10:04:48;;;;;;;;;;;;;;;17.00;57.68;100045.91;5071015;28;1140;-58
2022/08/25 10:07:20;;;;;;;;;;;;;;;16.99;57.92;100053.31;5063984;28;1069;-61
2022/08/25 10:09:50;;;;;;;;;;;;;;;17.02;57.92;100051.94;5074158;28;1914;-61
2022/08/25 10:12:16;;;;;;;;;;;;;;;17.02;57.96;100052.72;5070588;28;985;-58
2022/08/25 10:14:42;;;;;;;;;;;;;;;16.99;57.97;100041.53;5072884;28;908;-59
2022/08/25 10:17:12;;;;;;;;;;;;;;;17.00;58.14;100035.75;5058704;28;1133;-59
2022/08/25 10:19:37;;;;;;;;;;;;;;;17.00;58.11;100038.50;5076671;28;1104;-56
2022/08/25 10:22:05;;;;;;;;;;;;;;;17.01;57.88;100042.88;5063353;28;1175;-58
2022/08/25 10:24:31;;;;;;;;;;;;;;;17.03;58.00;100042.59;5076446;28;1191;-57
2022/08/25 10:26:59;;;;;;;;;;;;;;;17.03;58.03;100043.38;5068694;28;978;-59
2022/08/25 10:29:46;;;;;;;;;;;;;;;17.04;57.87;100053.28;5077085;28;1989;-56
2022/08/25 10:32:21;;;;;;;;;;;;;;;17.09;57.92;100052.38;5059199;28;1231;-57
2022/08/25 10:34:54;;;;;;;;;;;;;;;17.01;58.25;100051.13;5059273;28;1025;-58
2022/08/25 10:37:38;;;;;;;;;;;;;;;17.07;57.87;100055.44;5069901;28;1056;-60
2022/08/25 10:40:22;;;;;;;;;;;;;;;17.05;57.87;100059.56;5064375;28;1187;-58
2022/08/25 10:43:01;;;;;;;;;;;;;;;17.01;58.14;100055.78;5070712;28;1193;-60
2022/08/25 10:45:42;;;;;;;;;;;;;;;17.03;58.01;100064.56;5065184;28;1174;-59
2022/08/25 10:48:26;;;;;;;;;;;;;;;17.05;57.89;100068.63;5075031;28;1898;-63
2022/08/25 10:50:54;;;;;;;;;;;;;;;17.04;58.07;100066.16;5076327;28;945;-59
2022/08/25 10:53:41;;;;;;;;;;;;;;;17.02;57.96;100066.47;5076151;28;1048;-60
2022/08/25 10:56:06;;;;;;;;;;;;;;;17.06;57.69;100075.75;5022089;28;1314;-60
2022/08/25 10:58:32;;;;;;;;;;;;;;;17.05;57.80;100074.13;5076679;28;1114;-60
2022/08/25 11:00:58;;;;;;;;;;;;;;;17.01;58.14;100067.59;5076051;28;1004;-60
2022/08/25 11:03:28;;;;;;;;;;;;;;;17.00;58.04;100078.84;5066164;28;1378;-58
2022/08/25 11:05:57;;;;;;;;;;;;;;;17.06;58.10;100069.47;5058439;28;1060;-59
2022/08/25 11:08:25;;;;;;;;;;;;;;;17.02;58.04;100080.19;5076451;28;1909;-60
2022/08/25 11:11:09;;;;;;;;;;;;;;;17.08;58.01;100073.56;5075870;28;1131;-59
2022/08/25 11:13:42;;;;;;;;;;;;;;;17.03;58.07;100073.59;5057459;28;1195;-62
2022/08/25 11:16:12;;;;;;;;;;;;;;;17.07;58.20;100080.16;5050821;28;1251;-62
2022/08/25 11:18:40;;;;;;;;;;;;;;;17.04;57.95;100075.25;5075233;28;946;-61
2022/08/25 11:21:05;;;;;;;;;;;;;;;17.03;58.17;100075.53;5053509;28;1021;-57
2022/08/25 11:23:33;;;;;;;;;;;;;;;17.06;57.91;100075.75;5072120;28;994;-62
2022/08/25 11:26:00;;;;;;;;;;;;;;;17.04;58.25;100074.41;5071914;28;1057;-61
2022/08/25 11:28:29;;;;;;;;;;;;;;;17.05;58.14;100087.84;5049070;28;1918;-59
2022/08/25 11:30:55;;;;;;;;;;;;;;;17.04;58.27;100078.00;5068827;28;1056;-62
2022/08/25 11:33:21;;;;;;;;;;;;;;;17.04;58.34;100067.00;5038104;28;962;-56
2022/08/25 11:35:54;;;;;;;;;;;;;;;17.05;58.18;100052.13;5039847;28;1140;-60
2022/08/25 11:38:23;;;;;;;;;;;;;;;17.03;58.15;100065.38;5043542;28;1250;-59
2022/08/25 11:40:58;;;;;;;;;;;;;;;17.04;58.45;100058.78;5060922;28;1243;-59
2022/08/25 11:43:23;;;;;;;;;;;;;;;17.04;58.46;100066.16;5043855;28;1077;-59
2022/08/25 11:45:49;;;;;;;;;;;;;;;17.02;58.27;100055.47;5058800;28;1104;-58
2022/08/25 11:48:14;;;;;;;;;;;;;;;17.05;58.23;100057.63;5063878;28;1914;-57
2022/08/25 11:50:57;;;;;;;;;;;;;;;17.04;58.29;100058.78;5044703;28;1801;-60
2022/08/25 11:53:26;;;;;;;;;;;;;;;17.07;58.12;100060.91;5052089;28;1073;-59
2022/08/25 11:55:52;;;;;;;;;;;;;;;17.08;58.23;100072.72;5056943;28;1131;-58
2022/08/25 11:58:24;;;;;;;;;;;;;;;17.08;58.13;100062.56;5051332;28;1296;-59
2022/08/25 12:00:49;;;;;;;;;;;;;;;17.07;58.07;100066.41;5076488;28;1024;-62
2022/08/25 12:03:30;;;;;;;;;;;;;;;17.02;58.46;100066.47;5062824;28;1036;-59
2022/08/25 12:06:14;;;;;;;;;;;;;;;17.02;58.38;100057.44;5075574;28;1111;-60
2022/08/25 12:08:48;;;;;;;;;;;;;;;17.03;58.18;100059.06;5075721;28;1971;-59
2022/08/25 12:11:33;;;;;;;;;;;;;;;17.01;58.34;100064.84;5058037;28;1072;-59
2022/08/25 12:14:18;;;;;;;;;;;;;;;17.01;58.08;100062.09;5074942;28;1888;-59
2022/08/25 12:16:50;;;;;;;;;;;;;;;17.04;58.49;100061.50;5069162;28;1001;-60
2022/08/25 12:19:34;;;;;;;;;;;;;;;17.08;58.43;100061.72;5062123;28;1132;-63
2022/08/25 12:22:02;;;;;;;;;;;;;;;17.06;58.25;100062.03;5076070;28;1060;-62
2022/08/25 12:24:31;;;;;;;;;;;;;;;17.03;58.43;100062.63;5069099;28;1283;-62
2022/08/25 12:26:57;;;;;;;;;;;;;;;17.07;58.20;100051.88;5065068;28;1235;-56
2022/08/25 12:29:36;;;;;;;;;;;;;;;17.01;58.40;100050.28;5045462;28;1910;-61
2022/08/25 12:32:05;;;;;;;;;;;;;;;17.05;58.44;100057.63;5065072;28;1052;-57
2022/08/25 12:34:35;;;;;;;;;;;;;;;17.04;58.27;100061.50;5073349;28;1063;-59
2022/08/25 12:37:13;;;;;;;;;;;;;;;17.00;58.29;100044.00;5070136;28;1266;-58
2022/08/25 12:39:44;;;;;;;;;;;;;;;17.04;58.15;100047.78;5052672;28;1001;-58
2022/08/25 12:42:18;;;;;;;;;;;;;;;17.03;58.18;100048.88;5072989;28;1277;-58
2022/08/25 12:44:46;;;;;;;;;;;;;;;17.06;58.26;100048.28;5052270;28;1336;-58
2022/08/25 12:47:23;;;;;;;;;;;;;;;17.05;58.06;100049.41;5078709;28;1108;-58
2022/08/25 12:49:49;;;;;;;;;;;;;;;17.08;57.96;100050.75;5078230;28;1972;-59
2022/08/25 12:52:15;;;;;;;;;;;;;;;17.03;57.90;100053.56;5065058;28;927;-58
2022/08/25 12:54:44;;;;;;;;;;;;;;;17.03;58.04;100061.81;5076290;28;1117;-59
2022/08/25 12:57:12;;;;;;;;;;;;;;;17.01;58.16;100064.84;5069515;28;972;-61
2022/08/25 12:59:38;;;;;;;;;;;;;;;17.08;58.34;100065.31;5066867;28;989;-57
2022/08/25 13:02:22;;;;;;;;;;;;;;;17.02;58.30;100062.91;5050298;28;1009;-60
2022/08/25 13:04:47;;;;;;;;;;;;;;;17.02;58.18;100058.22;5065928;28;1180;-58
2022/08/25 13:07:22;;;;;;;;;;;;;;;17.06;58.22;100058.47;5069680;28;985;-56